Time;durP1;ratioP1;P1;durP2;ratioP2;P2;SDS_P1;SDS_P2;PMS_P1;PMS_P2;Temp;Humidity;BMP_temperature;BMP_pressure;BME280_temperature;BME280_humidity;BME280_pressure;Samples;Min_cycle;Max_cycle;Signal;HPM_P1;HPM_P2
2022/05/10 00:00:07;;;;;;;4.28;3.30;;;;;;;;;;5035374;28;20172;-48
2022/05/10 00:02:34;;;;;;;6.97;3.78;;;;;;;;;;5034178;28;20045;-50
2022/05/10 00:05:00;;;;;;;4.00;3.60;;;;;;;;;;5034732;28;20078;-48
2022/05/10 00:07:28;;;;;;;4.35;3.42;;;;;;;;;;5034393;28;20033;-50
2022/05/10 00:09:54;;;;;;;5.32;3.67;;;;;;;;;;5035274;28;20029;-49
2022/05/10 00:12:20;;;;;;;4.20;3.65;;;;;;;;;;5034355;28;20026;-51
2022/05/10 00:14:46;;;;;;;4.25;3.47;;;;;;;;;;5034908;28;20029;-49
2022/05/10 00:17:18;;;;;;;7.13;4.18;;;;;;;;;;5034620;28;20076;-50
2022/05/10 00:19:44;;;;;;;4.97;4.15;;;;;;;;;;5034506;28;20113;-50
2022/05/10 00:22:10;;;;;;;3.85;3.42;;;;;;;;;;5034863;28;20108;-48
2022/05/10 00:24:36;;;;;;;4.22;3.83;;;;;;;;;;5033962;28;20159;-52
2022/05/10 00:27:02;;;;;;;4.80;3.97;;;;;;;;;;5034570;28;20528;-53
2022/05/10 00:29:28;;;;;;;4.43;3.50;;;;;;;;;;5033852;28;20029;-49
2022/05/10 00:31:54;;;;;;;5.00;3.67;;;;;;;;;;5034772;28;20026;-48
2022/05/10 00:34:20;;;;;;;6.30;3.83;;;;;;;;;;5033985;28;20026;-55
2022/05/10 00:36:46;;;;;;;3.95;3.40;;;;;;;;;;5034489;28;20035;-49
2022/05/10 00:39:13;;;;;;;5.85;3.72;;;;;;;;;;5034537;28;20056;-48
2022/05/10 00:41:45;;;;;;;4.15;3.75;;;;;;;;;;5033688;28;20017;-50
2022/05/10 00:44:23;;;;;;;4.70;4.10;;;;;;;;;;5034434;28;20597;-51
2022/05/10 00:47:04;;;;;;;5.22;4.05;;;;;;;;;;5034590;28;20470;-50
2022/05/10 00:49:34;;;;;;;4.45;3.72;;;;;;;;;;5033776;28;20044;-51
2022/05/10 00:52:07;;;;;;;5.32;4.45;;;;;;;;;;5034509;28;20058;-49
2022/05/10 00:54:36;;;;;;;4.65;4.03;;;;;;;;;;5033361;28;20029;-49
2022/05/10 00:57:08;;;;;;;3.90;3.45;;;;;;;;;;5034322;28;20034;-50
2022/05/10 00:59:46;;;;;;;5.22;3.67;;;;;;;;;;5033350;28;20029;-48
2022/05/10 01:02:15;;;;;;;5.05;3.70;;;;;;;;;;5034233;28;20080;-51
2022/05/10 01:04:47;;;;;;;5.57;4.18;;;;;;;;;;5033213;28;20203;-49
2022/05/10 01:07:16;;;;;;;4.63;4.20;;;;;;;;;;5033978;28;20132;-48
2022/05/10 01:09:51;;;;;;;4.75;4.10;;;;;;;;;;5033192;28;20178;-48
2022/05/10 01:12:23;;;;;;;4.35;3.90;;;;;;;;;;5033971;28;20018;-49
2022/05/10 01:14:58;;;;;;;5.25;4.32;;;;;;;;;;5033949;28;20069;-48
2022/05/10 01:17:24;;;;;;;3.90;3.55;;;;;;;;;;5033099;28;20386;-51
2022/05/10 01:19:50;;;;;;;4.28;3.80;;;;;;;;;;5033649;28;20025;-48
2022/05/10 01:22:27;;;;;;;4.82;4.03;;;;;;;;;;5032479;28;20025;-50
2022/05/10 01:25:12;;;;;;;5.00;3.97;;;;;;;;;;5033782;28;20105;-50
2022/05/10 01:27:38;;;;;;;5.57;3.72;;;;;;;;;;5032888;28;20029;-52
2022/05/10 01:30:06;;;;;;;4.15;3.70;;;;;;;;;;5033563;28;20382;-51
2022/05/10 01:35:25;;;;;;;4.80;3.67;;;;;;;;;;5032938;28;20148;-57
2022/05/10 01:37:59;;;;;;;4.53;3.75;;;;;;;;;;5033349;28;20037;-49
2022/05/10 01:40:39;;;;;;;5.15;3.97;;;;;;;;;;5032429;28;20052;-51
2022/05/10 01:43:11;;;;;;;4.68;4.00;;;;;;;;;;5033401;28;20030;-48
2022/05/10 01:45:43;;;;;;;4.10;3.70;;;;;;;;;;5032445;28;20108;-48
2022/05/10 01:48:11;;;;;;;5.22;4.32;;;;;;;;;;5033375;28;20435;-49
2022/05/10 01:50:49;;;;;;;4.93;4.07;;;;;;;;;;5032419;28;20029;-50
2022/05/10 01:53:15;;;;;;;4.85;3.75;;;;;;;;;;5024466;28;20113;-48
2022/05/10 01:55:55;;;;;;;5.72;4.00;;;;;;;;;;5012584;28;20860;-49
2022/05/10 01:58:25;;;;;;;6.82;3.67;;;;;;;;;;5013378;28;20026;-49
2022/05/10 02:00:57;;;;;;;5.65;3.67;;;;;;;;;;5013261;28;20466;-50
2022/05/10 02:03:23;;;;;;;5.10;3.92;;;;;;;;;;5013088;28;20022;-56
2022/05/10 02:05:58;;;;;;;4.85;4.35;;;;;;;;;;5012782;28;20026;-48
2022/05/10 02:08:27;;;;;;;4.28;3.88;;;;;;;;;;5012615;28;20026;-58
2022/05/10 02:10:54;;;;;;;4.47;3.88;;;;;;;;;;5012970;28;20022;-48
2022/05/10 02:13:29;;;;;;;4.78;3.95;;;;;;;;;;5012734;28;20402;-49
2022/05/10 02:16:00;;;;;;;4.05;3.63;;;;;;;;;;5013060;28;20490;-50
2022/05/10 02:18:52;;;;;;;4.35;3.90;;;;;;;;;;5012374;28;20029;-56
2022/05/10 02:21:27;;;;;;;7.32;4.47;;;;;;;;;;5010008;28;20034;-48
2022/05/10 02:24:05;;;;;;;5.22;3.97;;;;;;;;;;5012838;28;20065;-51
2022/05/10 02:26:34;;;;;;;4.85;4.35;;;;;;;;;;5011770;28;20030;-50
2022/05/10 02:29:16;;;;;;;5.20;4.55;;;;;;;;;;5012879;28;20030;-53
2022/05/10 02:34:34;;;;;;;4.68;3.65;;;;;;;;;;5012064;28;20029;-52
2022/05/10 02:37:00;;;;;;;5.15;4.00;;;;;;;;;;5012733;28;20048;-53
2022/05/10 02:39:26;;;;;;;5.20;4.25;;;;;;;;;;5011768;28;20053;-57
2022/05/10 02:41:52;;;;;;;4.82;4.15;;;;;;;;;;5012337;28;20045;-50
2022/05/10 02:44:18;;;;;;;5.18;4.03;;;;;;;;;;5012471;28;20383;-49
2022/05/10 02:46:44;;;;;;;5.10;4.05;;;;;;;;;;5011616;28;20030;-49
2022/05/10 02:49:10;;;;;;;5.50;4.30;;;;;;;;;;5012690;28;20521;-52
2022/05/10 02:51:36;;;;;;;3.83;3.42;;;;;;;;;;5011839;28;20026;-48
2022/05/10 02:54:02;;;;;;;4.78;4.10;;;;;;;;;;5012342;28;20037;-50
2022/05/10 02:56:29;;;;;;;4.75;3.95;;;;;;;;;;5011695;28;20517;-55
2022/05/10 02:58:55;;;;;;;4.88;3.95;;;;;;;;;;5012402;28;20026;-50
2022/05/10 03:01:33;;;;;;;5.82;5.18;;;;;;;;;;5012115;28;20036;-48
2022/05/10 03:04:00;;;;;;;6.35;4.32;;;;;;;;;;5012602;28;20030;-50
2022/05/10 03:06:27;;;;;;;6.15;4.32;;;;;;;;;;5012065;28;20427;-55
2022/05/10 03:08:53;;;;;;;4.80;4.20;;;;;;;;;;5011966;28;20034;-49
2022/05/10 03:11:19;;;;;;;5.13;3.92;;;;;;;;;;5012129;28;20018;-51
2022/05/10 03:13:47;;;;;;;5.50;4.55;;;;;;;;;;5011566;28;20030;-48
2022/05/10 03:16:13;;;;;;;5.07;4.22;;;;;;;;;;5012280;28;20026;-48
2022/05/10 03:18:39;;;;;;;7.18;4.43;;;;;;;;;;5011144;28;20387;-49
2022/05/10 03:21:05;;;;;;;5.03;4.20;;;;;;;;;;5012275;28;20045;-48
2022/05/10 03:23:31;;;;;;;4.43;3.97;;;;;;;;;;5011744;28;20033;-49
2022/05/10 03:25:58;;;;;;;5.22;4.53;;;;;;;;;;5016146;28;20026;-52
2022/05/10 03:28:24;;;;;;;4.40;4.00;;;;;;;;;;5016220;28;20068;-48
2022/05/10 03:30:50;;;;;;;4.28;3.88;;;;;;;;;;5015202;28;20030;-52
2022/05/10 03:33:17;;;;;;;4.43;3.88;;;;;;;;;;5015908;28;20021;-50
2022/05/10 03:35:43;;;;;;;4.55;3.92;;;;;;;;;;5015255;28;20080;-49
2022/05/10 03:38:09;;;;;;;5.05;4.35;;;;;;;;;;5015956;28;20037;-51
2022/05/10 03:40:35;;;;;;;6.50;4.95;;;;;;;;;;5014503;28;20050;-48
2022/05/10 03:43:01;;;;;;;5.40;4.53;;;;;;;;;;5016066;28;20037;-48
2022/05/10 03:45:29;;;;;;;8.02;4.22;;;;;;;;;;5015544;28;20034;-57
2022/05/10 03:47:55;;;;;;;4.30;3.90;;;;;;;;;;5015544;28;20026;-49
2022/05/10 03:50:23;;;;;;;6.47;4.88;;;;;;;;;;5015808;28;20040;-49
2022/05/10 03:52:49;;;;;;;4.75;3.85;;;;;;;;;;5019314;28;20017;-48
2022/05/10 03:55:17;;;;;;;5.15;4.43;;;;;;;;;;5035229;28;20100;-48
2022/05/10 03:57:44;;;;;;;4.20;3.80;;;;;;;;;;5034557;28;20032;-49
2022/05/10 04:00:11;;;;;;;5.90;4.60;;;;;;;;;;5035463;28;20025;-48
2022/05/10 04:02:38;;;;;;;4.18;3.78;;;;;;;;;;5034488;28;20083;-49
2022/05/10 04:05:04;;;;;;;6.28;4.15;;;;;;;;;;5035363;28;20033;-48
2022/05/10 04:07:30;;;;;;;4.88;4.38;;;;;;;;;;5034716;28;20033;-55
2022/05/10 04:09:56;;;;;;;4.68;4.13;;;;;;;;;;5034497;28;20348;-49
2022/05/10 04:12:22;;;;;;;4.65;4.25;;;;;;;;;;5035097;28;20032;-48
2022/05/10 04:14:48;;;;;;;5.00;4.35;;;;;;;;;;5034099;28;20752;-49
2022/05/10 04:17:14;;;;;;;3.97;3.58;;;;;;;;;;5035050;28;20029;-48
2022/05/10 04:19:40;;;;;;;4.55;3.95;;;;;;;;;;5034484;28;20075;-48
2022/05/10 04:22:06;;;;;;;8.32;4.10;;;;;;;;;;5035168;28;20057;-46
2022/05/10 04:24:33;;;;;;;5.30;4.22;;;;;;;;;;5034028;28;20052;-55
2022/05/10 04:27:00;;;;;;;4.65;3.85;;;;;;;;;;5034752;28;20103;-47
2022/05/10 04:29:26;;;;;;;6.43;4.55;;;;;;;;;;5034707;28;20072;-47
2022/05/10 04:31:52;;;;;;;5.45;4.15;;;;;;;;;;5033941;28;20028;-46
2022/05/10 04:34:18;;;;;;;6.13;4.47;;;;;;;;;;5035009;28;20032;-52
2022/05/10 04:36:44;;;;;;;4.78;3.97;;;;;;;;;;5033593;28;20030;-50
2022/05/10 04:39:11;;;;;;;5.75;4.05;;;;;;;;;;5034184;28;20474;-49
2022/05/10 04:41:38;;;;;;;5.68;4.95;;;;;;;;;;5033560;28;20362;-49
2022/05/10 04:44:09;;;;;;;7.38;4.07;;;;;;;;;;5034419;28;20053;-54
2022/05/10 04:46:36;;;;;;;5.40;3.95;;;;;;;;;;5033617;28;20055;-52
2022/05/10 04:49:03;;;;;;;5.07;4.35;;;;;;;;;;5034126;28;20059;-52
2022/05/10 04:51:29;;;;;;;6.63;4.38;;;;;;;;;;5033605;28;20052;-51
2022/05/10 04:53:56;;;;;;;7.32;4.30;;;;;;;;;;5019497;28;20088;-48
2022/05/10 04:56:22;;;;;;;4.55;3.92;;;;;;;;;;5014265;28;20367;-54
2022/05/10 04:58:48;;;;;;;4.68;4.28;;;;;;;;;;5012378;28;20026;-50
2022/05/10 05:01:16;;;;;;;6.55;3.60;;;;;;;;;;5014486;28;20026;-48
2022/05/10 05:03:43;;;;;;;4.80;4.35;;;;;;;;;;5013389;28;20033;-54
2022/05/10 05:06:09;;;;;;;4.90;4.05;;;;;;;;;;5013866;28;20032;-51
2022/05/10 05:08:35;;;;;;;5.35;4.25;;;;;;;;;;5013373;28;20037;-58
2022/05/10 05:11:02;;;;;;;5.65;4.32;;;;;;;;;;5020570;28;20022;-48
2022/05/10 05:13:28;;;;;;;6.07;4.72;;;;;;;;;;5024710;28;20031;-55
2022/05/10 05:15:54;;;;;;;7.70;4.60;;;;;;;;;;5023489;28;20021;-54
2022/05/10 05:18:21;;;;;;;4.55;4.15;;;;;;;;;;5022722;28;20038;-55
2022/05/10 05:20:48;;;;;;;5.97;4.20;;;;;;;;;;5022280;28;20037;-52
2022/05/10 05:23:15;;;;;;;4.65;4.13;;;;;;;;;;5019025;28;20029;-50
2022/05/10 05:25:42;;;;;;;5.07;4.18;;;;;;;;;;5010961;28;20475;-52
2022/05/10 05:28:09;;;;;;;7.10;3.95;;;;;;;;;;5013705;28;20057;-52
2022/05/10 05:30:35;;;;;;;5.88;4.20;;;;;;;;;;5013424;28;20048;-55
2022/05/10 05:33:01;;;;;;;5.38;4.03;;;;;;;;;;5013314;28;20502;-53
2022/05/10 05:35:27;;;;;;;4.38;3.70;;;;;;;;;;5013773;28;20026;-50
2022/05/10 05:37:54;;;;;;;7.32;3.45;;;;;;;;;;5012855;28;20450;-53
2022/05/10 05:40:21;;;;;;;3.90;3.53;;;;;;;;;;5013645;28;20482;-53
2022/05/10 05:42:48;;;;;;;5.88;4.03;;;;;;;;;;5010946;28;20022;-55
2022/05/10 05:45:15;;;;;;;5.10;3.92;;;;;;;;;;5013070;28;20034;-48
2022/05/10 05:47:41;;;;;;;4.28;3.72;;;;;;;;;;5012022;28;20037;-47
2022/05/10 05:50:08;;;;;;;6.72;4.30;;;;;;;;;;5013058;28;20137;-46
2022/05/10 05:52:35;;;;;;;6.43;4.85;;;;;;;;;;5013058;28;20038;-51
2022/05/10 05:55:01;;;;;;;5.05;4.03;;;;;;;;;;5012542;28;20026;-52
2022/05/10 05:57:27;;;;;;;8.98;4.70;;;;;;;;;;5012977;28;20030;-50
2022/05/10 05:59:54;;;;;;;6.65;4.47;;;;;;;;;;5012124;28;20095;-49
2022/05/10 06:02:21;;;;;;;5.70;4.18;;;;;;;;;;5013020;28;20490;-50
2022/05/10 06:04:47;;;;;;;9.00;4.72;;;;;;;;;;5012018;28;20117;-48
2022/05/10 06:07:14;;;;;;;7.10;4.40;;;;;;;;;;5013107;28;20406;-48
2022/05/10 06:09:41;;;;;;;5.80;4.10;;;;;;;;;;5012143;28;20021;-49
2022/05/10 06:12:10;;;;;;;5.45;4.13;;;;;;;;;;5012990;28;20021;-48
2022/05/10 06:14:37;;;;;;;7.25;3.97;;;;;;;;;;5047077;28;20025;-50
2022/05/10 06:17:03;;;;;;;7.65;4.68;;;;;;;;;;5052521;28;20021;-50
2022/05/10 06:19:29;;;;;;;7.30;4.18;;;;;;;;;;5052213;28;20112;-49
2022/05/10 06:21:56;;;;;;;5.95;4.40;;;;;;;;;;5051599;28;20091;-47
2022/05/10 06:24:25;;;;;;;6.80;4.28;;;;;;;;;;5023236;28;20022;-49
2022/05/10 06:26:51;;;;;;;7.13;4.72;;;;;;;;;;5011861;28;20030;-48
2022/05/10 06:29:17;;;;;;;5.05;4.00;;;;;;;;;;5012467;28;20371;-47
2022/05/10 06:31:44;;;;;;;6.05;4.32;;;;;;;;;;5011868;28;20485;-48
2022/05/10 06:34:10;;;;;;;6.03;4.47;;;;;;;;;;5012610;28;20030;-48
2022/05/10 06:36:37;;;;;;;5.30;4.00;;;;;;;;;;5011897;28;20475;-51
2022/05/10 06:39:03;;;;;;;5.22;4.05;;;;;;;;;;5011849;28;20052;-48
2022/05/10 06:41:31;;;;;;;5.00;3.90;;;;;;;;;;5012282;28;20107;-51
2022/05/10 06:43:57;;;;;;;6.55;4.20;;;;;;;;;;5035516;28;20021;-51
2022/05/10 06:46:23;;;;;;;5.00;4.40;;;;;;;;;;5052027;28;20024;-50
2022/05/10 06:48:50;;;;;;;5.95;4.18;;;;;;;;;;5051165;28;20025;-48
2022/05/10 06:51:17;;;;;;;6.65;4.40;;;;;;;;;;5032619;28;20029;-51
2022/05/10 06:53:44;;;;;;;5.78;4.70;;;;;;;;;;5031035;28;20025;-51
2022/05/10 06:56:10;;;;;;;5.78;4.63;;;;;;;;;;5026971;28;20049;-50
2022/05/10 06:58:36;;;;;;;5.80;4.57;;;;;;;;;;5029964;28;20490;-50
2022/05/10 07:01:02;;;;;;;6.60;4.18;;;;;;;;;;5031350;28;20394;-49
2022/05/10 07:03:32;;;;;;;7.18;4.75;;;;;;;;;;5030813;28;20413;-48
2022/05/10 07:05:59;;;;;;;8.50;5.05;;;;;;;;;;5030245;28;20068;-48
2022/05/10 07:08:26;;;;;;;7.57;4.80;;;;;;;;;;5031487;28;20096;-49
2022/05/10 07:10:52;;;;;;;5.63;4.18;;;;;;;;;;5031157;28;20030;-50
2022/05/10 07:13:19;;;;;;;7.45;4.65;;;;;;;;;;5031326;28;20097;-51
2022/05/10 07:15:45;;;;;;;6.03;4.30;;;;;;;;;;5031063;28;20030;-50
2022/05/10 07:18:11;;;;;;;9.52;4.88;;;;;;;;;;5031867;28;20017;-49
2022/05/10 07:20:37;;;;;;;5.63;4.13;;;;;;;;;;5029715;28;20033;-54
2022/05/10 07:23:04;;;;;;;6.45;4.82;;;;;;;;;;5031821;28;20026;-50
2022/05/10 07:25:30;;;;;;;5.90;4.55;;;;;;;;;;5030664;28;20155;-49
2022/05/10 07:27:57;;;;;;;7.70;4.28;;;;;;;;;;5030959;28;20029;-49
2022/05/10 07:30:23;;;;;;;6.28;4.90;;;;;;;;;;5031627;28;20424;-50
2022/05/10 07:32:50;;;;;;;5.47;4.68;;;;;;;;;;5029697;28;20029;-49
2022/05/10 07:35:17;;;;;;;8.00;5.00;;;;;;;;;;5031773;28;20041;-52
2022/05/10 07:37:43;;;;;;;4.93;4.43;;;;;;;;;;5030702;28;20394;-50
2022/05/10 07:40:10;;;;;;;8.43;4.82;;;;;;;;;;5031243;28;20132;-50
2022/05/10 07:42:37;;;;;;;4.90;4.40;;;;;;;;;;5031874;28;20052;-51
2022/05/10 07:45:04;;;;;;;5.20;4.60;;;;;;;;;;5050878;28;20065;-48
2022/05/10 07:47:30;;;;;;;4.70;4.20;;;;;;;;;;5034714;28;20064;-53
2022/05/10 07:49:56;;;;;;;5.72;4.10;;;;;;;;;;5030700;28;20026;-49
2022/05/10 07:52:22;;;;;;;6.47;4.43;;;;;;;;;;5031363;28;20053;-51
2022/05/10 07:54:48;;;;;;;5.47;4.38;;;;;;;;;;5030132;28;20053;-52
2022/05/10 07:57:14;;;;;;;5.88;5.22;;;;;;;;;;5031599;28;20048;-49
2022/05/10 07:59:40;;;;;;;6.68;4.63;;;;;;;;;;5030337;28;20093;-47
2022/05/10 08:02:07;;;;;;;5.25;4.25;;;;;;;;;;5031357;28;20025;-47
2022/05/10 08:04:33;;;;;;;6.28;4.32;;;;;;;;;;5031302;28;20032;-49
2022/05/10 08:07:00;;;;;;;6.63;4.75;;;;;;;;;;5030680;28;20026;-47
2022/05/10 08:09:26;;;;;;;4.55;4.10;;;;;;;;;;5031842;28;20356;-48
2022/05/10 08:11:52;;;;;;;5.72;4.10;;;;;;;;;;5034236;28;20147;-48
2022/05/10 08:14:18;;;;;;;5.25;4.40;;;;;;;;;;5034781;28;20106;-48
2022/05/10 08:16:46;;;;;;;4.40;3.88;;;;;;;;;;5033503;28;20030;-50
2022/05/10 08:19:12;;;;;;;4.97;4.18;;;;;;;;;;5026298;28;20394;-50
2022/05/10 08:21:38;;;;;;;5.63;4.40;;;;;;;;;;5033490;28;20025;-50
2022/05/10 08:24:05;;;;;;;5.07;4.22;;;;;;;;;;5034062;28;20030;-49
2022/05/10 08:26:31;;;;;;;5.28;4.00;;;;;;;;;;5033370;28;20034;-51
2022/05/10 08:28:57;;;;;;;5.18;4.47;;;;;;;;;;5033993;28;20684;-49
2022/05/10 08:31:23;;;;;;;5.05;4.18;;;;;;;;;;5033036;28;20036;-50
2022/05/10 08:33:49;;;;;;;5.47;4.90;;;;;;;;;;5027191;28;20028;-49
2022/05/10 08:36:15;;;;;;;4.70;4.20;;;;;;;;;;5014116;28;20037;-48
2022/05/10 08:38:41;;;;;;;6.15;4.25;;;;;;;;;;5013435;28;20037;-49
2022/05/10 08:41:28;;;;;;;5.43;4.03;;;;;;;;;;5014701;28;20034;-50
2022/05/10 08:44:00;;;;;;;5.82;4.47;;;;;;;;;;5025196;28;20351;-49
2022/05/10 08:46:32;;;;;;;4.88;4.35;;;;;;;;;;5033692;28;20030;-50
2022/05/10 08:49:01;;;;;;;5.60;4.78;;;;;;;;;;5033066;28;20021;-51
2022/05/10 08:51:28;;;;;;;5.15;4.05;;;;;;;;;;5033928;28;20087;-49
2022/05/10 08:53:55;;;;;;;5.32;4.10;;;;;;;;;;5019506;28;20026;-49
2022/05/10 08:56:32;;;;;;;5.43;4.35;;;;;;;;;;5028990;28;20031;-50
2022/05/10 08:59:02;;;;;;;6.35;4.43;;;;;;;;;;5033286;28;20017;-50
2022/05/10 09:01:31;;;;;;;5.95;3.92;;;;;;;;;;5033573;28;20013;-49
2022/05/10 09:04:07;;;;;;;5.18;4.00;;;;;;;;;;5031723;28;20047;-49
2022/05/10 09:06:40;;;;;;;5.90;4.22;;;;;;;;;;5033755;28;20486;-50
2022/05/10 09:09:25;;;;;;;4.53;3.70;;;;;;;;;;5033869;28;20033;-51
2022/05/10 09:11:52;;;;;;;4.85;4.15;;;;;;;;;;5032811;28;20025;-50
2022/05/10 09:14:23;;;;;;;4.75;3.83;;;;;;;;;;5033475;28;20036;-50
2022/05/10 09:16:49;;;;;;;4.32;3.92;;;;;;;;;;5032647;28;20022;-50
2022/05/10 09:19:17;;;;;;;4.28;3.88;;;;;;;;;;5032903;28;20378;-53
2022/05/10 09:21:53;;;;;;;4.90;4.35;;;;;;;;;;5031688;28;20489;-50
2022/05/10 09:24:28;;;;;;;4.50;4.10;;;;;;;;;;5033263;28;20074;-50
2022/05/10 09:26:56;;;;;;;11.23;4.72;;;;;;;;;;5031605;28;20466;-49
2022/05/10 09:29:32;;;;;;;4.88;3.75;;;;;;;;;;5032012;28;20120;-50
2022/05/10 09:34:56;;;;;;;3.65;3.28;;;;;;;;;;5031516;28;20076;-50
2022/05/10 09:37:28;;;;;;;6.28;4.68;;;;;;;;;;5032618;28;20052;-51
2022/05/10 09:39:57;;;;;;;5.35;4.38;;;;;;;;;;5031952;28;20042;-54
2022/05/10 09:42:31;;;;;;;7.13;4.78;;;;;;;;;;5032775;28;20374;-51
2022/05/10 09:45:02;;;;;;;7.72;3.83;;;;;;;;;;5032001;28;20039;-51
2022/05/10 09:47:28;;;;;;;4.10;3.70;;;;;;;;;;5033085;28;20028;-51
2022/05/10 09:49:54;;;;;;;4.25;3.53;;;;;;;;;;5032099;28;20025;-50
2022/05/10 09:52:27;;;;;;;8.25;3.50;;;;;;;;;;5032107;28;20030;-50
2022/05/10 09:54:54;;;;;;;5.20;3.80;;;;;;;;;;5013332;28;20395;-50
2022/05/10 09:57:33;;;;;;;4.65;4.07;;;;;;;;;;5031993;28;20029;-53
2022/05/10 09:59:59;;;;;;;4.43;3.78;;;;;;;;;;5031936;28;20022;-51
2022/05/10 10:02:30;;;;;;;5.13;4.15;;;;;;;;;;5032518;28;20026;-48
2022/05/10 10:04:56;;;;;;;4.95;3.92;;;;;;;;;;5031737;28;20026;-49
2022/05/10 10:07:28;;;;;;;6.70;3.75;;;;;;;;;;5032425;28;20029;-51
2022/05/10 10:09:55;;;;;;;5.05;3.80;;;;;;;;;;5031654;28;20107;-51
2022/05/10 10:12:27;;;;;;;5.57;3.63;;;;;;;;;;5032054;28;20033;-50
2022/05/10 10:14:55;;;;;;;4.60;4.03;;;;;;;;;;5031800;28;20021;-53
2022/05/10 10:17:23;;;;;;;4.57;3.83;;;;;;;;;;5032197;28;20043;-50
2022/05/10 10:19:54;;;;;;;4.30;3.90;;;;;;;;;;5031567;28;20060;-50
2022/05/10 10:22:27;;;;;;;3.97;3.50;;;;;;;;;;5032131;28;20065;-51
2022/05/10 10:25:12;;;;;;;4.60;3.40;;;;;;;;;;5030913;28;20034;-55
2022/05/10 10:27:48;;;;;;;5.72;4.03;;;;;;;;;;5015199;28;20111;-57
2022/05/10 10:30:25;;;;;;;6.55;4.30;;;;;;;;;;5032040;28;20052;-50
2022/05/10 10:33:05;;;;;;;4.78;3.90;;;;;;;;;;5030915;28;20104;-53
2022/05/10 10:35:38;;;;;;;5.30;3.05;;;;;;;;;;5032096;28;20036;-49
2022/05/10 10:38:11;;;;;;;5.72;3.10;;;;;;;;;;5031472;28;20029;-50
2022/05/10 10:40:40;;;;;;;4.22;3.58;;;;;;;;;;5032029;28;20053;-56
2022/05/10 10:43:17;;;;;;;7.32;3.75;;;;;;;;;;5031719;28;20155;-53
2022/05/10 10:45:47;;;;;;;3.78;3.20;;;;;;;;;;5030405;28;20066;-51
2022/05/10 10:48:13;;;;;;;5.20;3.28;;;;;;;;;;5030996;28;20034;-48
2022/05/10 10:50:39;;;;;;;5.30;3.35;;;;;;;;;;5031052;28;20025;-53
2022/05/10 10:53:08;;;;;;;6.65;3.53;;;;;;;;;;5024768;28;20101;-50
2022/05/10 10:55:47;;;;;;;5.75;3.53;;;;;;;;;;5015498;28;20017;-50
2022/05/10 10:58:25;;;;;;;3.88;3.53;;;;;;;;;;5030500;28;20026;-48
2022/05/10 11:00:55;;;;;;;5.10;3.70;;;;;;;;;;5030979;28;20021;-49
2022/05/10 11:03:34;;;;;;;4.07;3.50;;;;;;;;;;5031155;28;20021;-49
2022/05/10 11:06:19;;;;;;;5.65;3.60;;;;;;;;;;5031080;28;20032;-50
2022/05/10 11:08:51;;;;;;;3.80;3.50;;;;;;;;;;5030463;28;20046;-50
2022/05/10 11:11:25;;;;;;;4.60;3.83;;;;;;;;;;5031727;28;20022;-52
2022/05/10 11:14:10;;;;;;;3.53;3.22;;;;;;;;;;5030752;28;20029;-50
2022/05/10 11:16:36;;;;;;;5.15;3.15;;;;;;;;;;5031113;28;20041;-57
2022/05/10 11:19:02;;;;;;;4.00;3.08;;;;;;;;;;5030384;28;20025;-52
2022/05/10 11:21:46;;;;;;;5.50;3.60;;;;;;;;;;5031202;28;20064;-50
2022/05/10 11:24:30;;;;;;;4.38;3.08;;;;;;;;;;5031312;28;20041;-51
2022/05/10 11:27:22;;;;;;;6.15;3.45;;;;;;;;;;5029687;28;20035;-51
2022/05/10 11:29:56;;;;;;;5.57;2.95;;;;;;;;;;5014692;28;20121;-52
2022/05/10 11:32:37;;;;;;;3.60;3.30;;;;;;;;;;5030961;28;20041;-52
2022/05/10 11:35:12;;;;;;;4.88;3.38;;;;;;;;;;5026586;28;20076;-53
2022/05/10 11:37:45;;;;;;;4.93;3.75;;;;;;;;;;5013086;28;20053;-52
2022/05/10 11:40:31;;;;;;;3.67;3.03;;;;;;;;;;5011605;28;20045;-51
2022/05/10 11:43:07;;;;;;;3.40;3.05;;;;;;;;;;5015467;28;20541;-52
2022/05/10 11:45:52;;;;;;;4.57;2.85;;;;;;;;;;5033446;28;20033;-53
2022/05/10 11:48:22;;;;;;;4.40;3.40;;;;;;;;;;5035238;28;20025;-51
2022/05/10 11:54:16;;;;;;;4.57;3.22;;;;;;;;;;5034327;28;20053;-56
2022/05/10 11:56:44;;;;;;;5.30;2.90;;;;;;;;;;5033290;28;20367;-51
2022/05/10 11:59:32;;;;;;;3.88;3.47;;;;;;;;;;5034847;28;20032;-50
2022/05/10 12:01:58;;;;;;;4.25;2.88;;;;;;;;;;5034287;28;20075;-53
2022/05/10 12:04:35;;;;;;;5.68;2.60;;;;;;;;;;5033112;28;20033;-55
2022/05/10 12:07:19;;;;;;;7.15;2.97;;;;;;;;;;5033754;28;20033;-51
2022/05/10 12:09:52;;;;;;;3.92;3.08;;;;;;;;;;5033916;28;20120;-51
2022/05/10 12:12:33;;;;;;;4.82;3.22;;;;;;;;;;5032458;28;20039;-58
2022/05/10 12:21:19;;;;;;;4.78;2.88;;;;;;;;;;5035516;28;20461;-54
2022/05/10 12:24:02;;;;;;;3.63;3.20;;;;;;;;;;5034307;28;20036;-58
2022/05/10 12:26:47;;;;;;;5.28;3.28;;;;;;;;;;5033934;28;20029;-51
2022/05/10 12:29:31;;;;;;;6.05;3.75;;;;;;;;;;5034676;28;20030;-54
2022/05/10 12:32:04;;;;;;;4.15;3.10;;;;;;;;;;5033479;28;20113;-51
2022/05/10 12:34:41;;;;;;;4.57;3.25;;;;;;;;;;5033713;28;20038;-50
2022/05/10 12:37:22;;;;;;;4.40;3.03;;;;;;;;;;5014566;28;20375;-50
2022/05/10 12:40:12;;;;;;;3.70;3.08;;;;;;;;;;5013582;28;20053;-51
2022/05/10 12:42:54;;;;;;;4.38;2.70;;;;;;;;;;5009526;28;20505;-52
2022/05/10 12:45:21;;;;;;;;;;;;;;;;;;5034489;28;20045;-53
2022/05/10 12:47:47;;;;;;;3.60;3.15;;;;;;;;;;5033405;28;19905;-54
2022/05/10 12:50:21;;;;;;;3.55;2.92;;;;;;;;;;5034005;28;20021;-53
2022/05/10 12:52:48;;;;;;;4.65;3.08;;;;;;;;;;5028701;28;20022;-50
2022/05/10 12:55:17;;;;;;;3.70;3.13;;;;;;;;;;5014201;28;20117;-51
2022/05/10 12:57:46;;;;;;;3.85;3.00;;;;;;;;;;5026887;28;20381;-52
2022/05/10 13:00:14;;;;;;;5.40;2.95;;;;;;;;;;5033659;28;20501;-54
2022/05/10 13:02:45;;;;;;;3.40;2.80;;;;;;;;;;5033292;28;20022;-56
2022/05/10 13:05:16;;;;;;;4.80;3.13;;;;;;;;;;5033779;28;20104;-51
2022/05/10 13:07:50;;;;;;;3.03;2.72;;;;;;;;;;5032443;28;20025;-52
2022/05/10 13:10:20;;;;;;;4.63;2.80;;;;;;;;;;5030952;28;20072;-50
2022/05/10 13:12:59;;;;;;;3.28;2.83;;;;;;;;;;5032640;28;20372;-50
2022/05/10 13:15:26;;;;;;;4.45;3.03;;;;;;;;;;5033537;28;20437;-54
2022/05/10 13:17:54;;;;;;;3.92;2.80;;;;;;;;;;5032598;28;20061;-52
2022/05/10 13:20:25;;;;;;;4.13;2.92;;;;;;;;;;5032818;28;20033;-53
2022/05/10 13:22:55;;;;;;;2.97;2.60;;;;;;;;;;5032832;28;20086;-50
2022/05/10 13:25:35;;;;;;;4.10;3.15;;;;;;;;;;5026441;28;20034;-52
2022/05/10 13:28:34;;;;;;;5.28;3.38;;;;;;;;;;5034978;28;20021;-55
2022/05/10 13:31:01;;;;;;;4.30;2.83;;;;;;;;;;5003475;28;20144;-51
2022/05/10 13:33:28;;;;;;;3.45;2.83;;;;;;;;;;5033683;28;20493;-58
2022/05/10 13:35:56;;;;;;;6.75;3.10;;;;;;;;;;5033792;28;20033;-54
2022/05/10 13:38:25;;;;;;;3.38;2.75;;;;;;;;;;5025601;28;20135;-53
2022/05/10 13:40:55;;;;;;;4.32;3.15;;;;;;;;;;5019555;28;20116;-53
2022/05/10 13:43:21;;;;;;;4.82;3.03;;;;;;;;;;5034941;28;20478;-53
2022/05/10 13:45:51;;;;;;;6.00;2.83;;;;;;;;;;5032012;28;20033;-52
2022/05/10 13:48:19;;;;;;;4.15;2.72;;;;;;;;;;5031729;28;20030;-53
2022/05/10 13:50:47;;;;;;;4.00;3.15;;;;;;;;;;5031976;28;20029;-52
2022/05/10 13:53:18;;;;;;;5.05;3.17;;;;;;;;;;5024214;28;20564;-54
2022/05/10 13:55:52;;;;;;;3.70;2.83;;;;;;;;;;5024878;28;20390;-51
2022/05/10 13:58:27;;;;;;;3.63;2.70;;;;;;;;;;5032803;28;20364;-51
2022/05/10 14:00:54;;;;;;;3.85;3.15;;;;;;;;;;5031841;28;20041;-50
2022/05/10 14:03:21;;;;;;;4.32;3.20;;;;;;;;;;5032907;28;20075;-54
2022/05/10 14:05:49;;;;;;;3.83;3.00;;;;;;;;;;5031789;28;20041;-54
2022/05/10 14:08:26;;;;;;;4.95;3.40;;;;;;;;;;5032171;28;20074;-51
2022/05/10 14:11:25;;;;;;;4.68;4.07;;;;;;;;;;5030409;28;20100;-50
2022/05/10 14:13:52;;;;;;;6.93;3.17;;;;;;;;;;4993922;28;20120;-56
2022/05/10 14:16:29;;;;;;;4.63;3.17;;;;;;;;;;5029022;28;20030;-53
2022/05/10 14:18:56;;;;;;;5.70;3.38;;;;;;;;;;5032699;28;20417;-53
2022/05/10 14:21:24;;;;;;;4.38;2.70;;;;;;;;;;5031832;28;20026;-55
2022/05/10 14:23:51;;;;;;;4.32;3.17;;;;;;;;;;5031387;28;20450;-51
2022/05/10 14:26:29;;;;;;;3.72;3.03;;;;;;;;;;5031888;28;20029;-54
2022/05/10 14:28:55;;;;;;;5.57;3.60;;;;;;;;;;5031407;28;20044;-54
2022/05/10 14:31:37;;;;;;;5.38;3.33;;;;;;;;;;5032108;28;20022;-52
2022/05/10 14:34:04;;;;;;;5.35;3.33;;;;;;;;;;5029249;28;20029;-59
2022/05/10 14:36:37;;;;;;;11.20;3.70;;;;;;;;;;5031755;28;20097;-57
2022/05/10 14:39:04;;;;;;;4.30;3.25;;;;;;;;;;5029205;28;20124;-57
2022/05/10 14:41:46;;;;;;;5.88;3.40;;;;;;;;;;5029692;28;20021;-59
2022/05/10 14:44:12;;;;;;;;;;;;;;;;;;5022478;28;20536;-55
2022/05/10 14:46:46;;;;;;;6.05;3.45;;;;;;;;;;5032798;28;19913;-58
2022/05/10 14:49:12;;;;;;;5.63;3.63;;;;;;;;;;5032238;28;20055;-54
2022/05/10 14:51:40;;;;;;;4.65;3.38;;;;;;;;;;5031559;28;20029;-56
2022/05/10 14:54:10;;;;;;;4.80;2.90;;;;;;;;;;5031298;28;20029;-50
2022/05/10 14:56:36;;;;;;;7.72;3.28;;;;;;;;;;5031670;28;20032;-49
2022/05/10 14:59:14;;;;;;;3.75;2.90;;;;;;;;;;5030764;28;20682;-51
2022/05/10 15:01:41;;;;;;;5.60;2.97;;;;;;;;;;5031097;28;20029;-58
2022/05/10 15:04:13;;;;;;;3.85;3.28;;;;;;;;;;5031145;28;20061;-50
2022/05/10 15:06:41;;;;;;;4.25;3.05;;;;;;;;;;5030456;28;20481;-56
2022/05/10 15:09:07;;;;;;;7.32;3.30;;;;;;;;;;5031430;28;20025;-53
2022/05/10 15:11:34;;;;;;;6.32;3.38;;;;;;;;;;5030928;28;20034;-53
2022/05/10 15:14:01;;;;;;;6.72;3.53;;;;;;;;;;5030271;28;20041;-53
2022/05/10 15:16:27;;;;;;;6.72;3.50;;;;;;;;;;5031142;28;20436;-52